Prineville, Oregon
Current Conditions -  °F | °C
As of 10:40 AM on Tuesday 27 Jan 2015 (Local Time) from KS39 Reporting Station
Clear Clear  
Wind Chill:   Ceiling: Unl
Heat Index:   Visibility: 10mi
Dew Point:   Wind: 6mph
Humidity: 66%   Direction: 140°SE
Pressure: 30.07"   Gusts: NA
Location:  44.3°N, 120.84°W
Report Text: KS39 271840Z AUTO 14005KT 10SM CLR 08/02 A3007 RMK AO2
Loading
Personal Weather Stations






























Interactive Weather Map New forecast layout! Learn more

10-Day Weather Forecast

Advertisements
Track Severe Weather on mobile